Terminal Aerodrome Forecast
Issued by NWS

Home | Current Version | Previous Version | Graphics & Text | Print | Product List | Glossary On
Versions: 1 2 3 4 5 6 7 8 9 10 11 12 13 14 15 16 17 18 19 20 21 22 23 24 25 26 27 28 29 30 31 32 33 34
000
FTUS43 KLOT 202300
TAFDPA
TAF
KDPA 202337Z 2100/2124 01008KT P6SM BKN060
     FM210100 36007KT P6SM BKN040
     FM210600 35008KT P6SM SCT025 BKN035
     FM211400 01011G17KT P6SM SCT015 BKN025
     FM212100 01012G18KT P6SM SCT025=

USA.gov is the U.S. government's official web portal to all federal, state and local government web resources and services.